Airfield :
LOGIN :

Register | Disclaimer

   EN    FR    IT 

 










Legend :    VFR   Marginal VFR   IFR   Intensive IFR   Very Intensive IFR
Visi :
Ceiling :
>= 8 km
>= 3000ft
5 to 8 km
1000 to 3000 ft
1500m to 5 km
500 to 1000 ft
800 to 1500m
200 to 500 ft
< 800m
< 200 ft
Symbols :   Thunderstorms  Fog  Heavy snow  Heavy precipitations  Wind > 20 kt
SIGMETs :     Misc.  Thunderstorms  Icing  Turbulence  Mountain Waves  Volcanic Ashes







- Airport Elevation : 13 ft
- IATA code : OST


EBOS - Oostend bruges Int.

CURRENT METAR :
  • 181720Z 21005KT 9999 FEW023 BKN048 06/03 Q1002 TEMPO 28020G35KT 4000 SHRA SCT014CB

EXPIRED METARs :
  • 181650Z 23006KT 9999 FEW022 BKN048 06/02 Q1002 TEMPO 28020G35KT 4000 SHRA SCT014CB
  • 181620Z 28010KT 9999 FEW022 BKN048 07/02 Q1002 TEMPO 28020G35KT 4000 SHRA SCT014CB
  • 181550Z 28009KT 9999 FEW022 SCT048 07/03 Q1002 TEMPO 28020G30KT 4000 SHRA BKN014CB
  • 181520Z 28008KT 9999 FEW022 SCT039 07/03 Q1003 TEMPO 28020G30KT 4000 SHRA BKN014CB

TAF TAF EBOS
Valid from the 18 at 18:00 until the 20 at 00:00 UTC


181711Z 1818/1924 28020G35KT 9999 SCT020
TEMPO 1818/1904 4000 SHRA SCT008 BKN014CB
PROB30
TEMPO 1818/1904 2500 SHRAGS
BECMG 1903/1905 27015G25KT
PROB30
TEMPO 1916/1921 4000 SHRA
No reported NOTAMs for that airfield.



MET'MAP, your aeronautical weather chart ! - Copyright ORBIFLY December 2007 - Disclaimer

ORBIFLY MET'MAP TEAM :

Programming & Development : Alexandra Zaïnal
Concept & Development : Baudouin d'Aumeries
Co-Development & Prog : Marc-Olivier Méhu
Technical & hardware support : Manuel Goepfert

Contact : metmap@orbifly.com




SOURCES & CREDITS :

   NOAA